createdAt,value
2023-05-20T00:01:20.215Z,2.33
2023-05-20T00:03:48.297Z,1.97
2023-05-20T00:06:18.046Z,2.93
2023-05-20T00:08:49.939Z,2.10
2023-05-20T00:11:18.457Z,2.23
2023-05-20T00:13:48.895Z,4.33
2023-05-20T00:16:17.299Z,2.50
2023-05-20T00:18:45.589Z,2.67
2023-05-20T00:21:14.255Z,2.77
2023-05-20T00:23:44.304Z,3.00
2023-05-20T00:26:12.521Z,2.50
2023-05-20T00:28:41.371Z,3.57
2023-05-20T00:31:17.930Z,2.73
2023-05-20T00:33:46.327Z,2.77
2023-05-20T00:36:17.265Z,3.17
2023-05-20T00:38:49.666Z,2.80
2023-05-20T00:41:25.854Z,2.93
2023-05-20T00:43:55.969Z,2.87
2023-05-20T00:46:28.922Z,2.73
2023-05-20T00:48:59.218Z,3.30
2023-05-20T00:51:28.618Z,2.70
2023-05-20T00:53:59.098Z,2.73
2023-05-20T00:56:31.728Z,3.33
2023-05-20T00:59:00.193Z,3.33
2023-05-20T01:01:35.832Z,3.43
2023-05-20T01:04:04.868Z,3.10
2023-05-20T01:06:36.232Z,3.13
2023-05-20T01:09:06.055Z,3.23
2023-05-20T01:11:41.443Z,3.70
2023-05-20T01:14:18.964Z,3.10
2023-05-20T01:16:52.165Z,3.17
2023-05-20T01:19:29.811Z,3.37
2023-05-20T01:22:02.546Z,3.13
2023-05-20T01:24:33.884Z,3.10
2023-05-20T01:27:03.063Z,3.90
2023-05-20T01:29:34.222Z,3.93
2023-05-20T01:32:05.001Z,4.50
2023-05-20T01:34:34.880Z,3.43
2023-05-20T01:37:04.431Z,3.70
2023-05-20T01:39:40.515Z,3.93
2023-05-20T01:42:11.269Z,3.70
2023-05-20T01:44:41.867Z,3.17
2023-05-20T01:47:13.324Z,3.70
2023-05-20T01:49:44.598Z,3.47
2023-05-20T01:52:15.409Z,3.50
2023-05-20T01:54:51.206Z,3.03
2023-05-20T01:57:20.565Z,4.53
2023-05-20T01:59:51.064Z,3.43
2023-05-20T02:02:21.326Z,3.53
2023-05-20T02:04:52.934Z,3.23
2023-05-20T02:07:28.785Z,3.80
2023-05-20T02:10:01.305Z,4.63
2023-05-20T02:12:29.341Z,4.07
2023-05-20T02:14:59.582Z,3.63
2023-05-20T02:17:28.864Z,4.00
2023-05-20T02:19:57.078Z,4.27
2023-05-20T02:22:26.541Z,3.80
2023-05-20T02:24:56.794Z,4.10
2023-05-20T02:27:31.843Z,4.07
2023-05-20T02:30:06.135Z,3.50
2023-05-20T02:32:36.872Z,4.67
2023-05-20T02:35:07.033Z,4.00
2023-05-20T02:37:43.619Z,3.90
2023-05-20T02:40:14.584Z,4.30
2023-05-20T02:43:01.471Z,6.00
2023-05-20T02:45:31.835Z,4.43
2023-05-20T02:48:03.542Z,4.73
2023-05-20T02:50:38.308Z,4.63
2023-05-20T02:53:07.076Z,3.97
2023-05-20T02:55:36.592Z,4.57
2023-05-20T02:58:11.552Z,3.97
2023-05-20T03:00:41.566Z,4.90
2023-05-20T03:03:11.369Z,5.30
2023-05-20T03:05:42.461Z,5.27
2023-05-20T03:10:53.011Z,6.03
2023-05-20T03:13:27.035Z,4.93
2023-05-20T03:15:56.550Z,5.17
2023-05-20T03:18:27.528Z,5.10
2023-05-20T03:20:56.364Z,4.67
2023-05-20T03:23:24.506Z,4.93
2023-05-20T03:25:57.630Z,5.43
2023-05-20T03:28:35.027Z,5.17
2023-05-20T03:31:04.475Z,5.80
2023-05-20T03:33:35.369Z,5.33
2023-05-20T03:36:04.445Z,5.00
2023-05-20T03:38:33.570Z,4.50
2023-05-20T03:41:01.903Z,4.87
2023-05-20T03:43:33.022Z,6.77
2023-05-20T03:46:01.834Z,5.27
2023-05-20T03:48:30.736Z,5.30
2023-05-20T03:51:02.482Z,4.43
2023-05-20T03:53:32.401Z,5.70
2023-05-20T03:56:03.355Z,5.20
2023-05-20T03:58:33.131Z,4.90
2023-05-20T04:01:07.390Z,4.70
2023-05-20T04:03:36.091Z,5.27
2023-05-20T04:06:05.967Z,5.33
2023-05-20T04:08:42.181Z,5.80
2023-05-20T04:11:14.130Z,7.20
2023-05-20T04:13:43.248Z,5.63
2023-05-20T04:16:15.423Z,6.67
2023-05-20T04:18:47.468Z,5.73
2023-05-20T04:21:19.250Z,6.13
2023-05-20T04:23:47.823Z,6.90
2023-05-20T04:26:16.381Z,6.23
2023-05-20T04:28:50.010Z,7.50
2023-05-20T04:31:21.249Z,6.80
2023-05-20T04:33:49.270Z,6.03
2023-05-20T04:36:17.809Z,6.70
2023-05-20T04:38:46.318Z,6.07
2023-05-20T04:41:17.341Z,6.10
2023-05-20T04:43:46.428Z,7.23
2023-05-20T04:46:20.486Z,6.00
2023-05-20T04:48:59.818Z,6.80
2023-05-20T04:51:30.491Z,6.80
2023-05-20T04:54:00.055Z,6.30
2023-05-20T04:56:29.404Z,6.77
2023-05-20T04:58:59.032Z,6.90
2023-05-20T05:01:30.560Z,6.93
2023-05-20T05:04:06.006Z,7.27
2023-05-20T05:06:37.500Z,6.40
2023-05-20T05:09:08.455Z,6.60
2023-05-20T05:11:37.055Z,7.30
2023-05-20T05:14:07.472Z,7.00
2023-05-20T05:16:41.895Z,7.17
2023-05-20T05:19:11.790Z,6.87
2023-05-20T05:21:47.334Z,8.07
2023-05-20T05:24:16.882Z,7.50
2023-05-20T05:26:45.352Z,7.13
2023-05-20T05:29:16.322Z,6.97
2023-05-20T05:31:46.478Z,8.10
2023-05-20T05:34:17.339Z,6.83
2023-05-20T05:36:45.429Z,7.17
2023-05-20T05:39:13.460Z,7.67
2023-05-20T05:41:41.235Z,6.87
2023-05-20T05:44:09.256Z,8.00
2023-05-20T05:46:37.457Z,7.87
2023-05-20T05:49:06.599Z,8.20
2023-05-20T05:54:02.215Z,6.70
2023-05-20T05:56:30.255Z,7.80
2023-05-20T05:58:57.939Z,7.30
2023-05-20T06:01:25.779Z,7.13
2023-05-20T06:03:53.975Z,7.47
2023-05-20T06:06:23.296Z,7.90
2023-05-20T06:08:51.228Z,7.43
2023-05-20T06:11:21.857Z,7.37
2023-05-20T06:13:49.624Z,7.73
2023-05-20T06:16:17.624Z,6.90
2023-05-20T06:18:50.273Z,6.63
2023-05-20T06:21:18.525Z,7.70
2023-05-20T06:23:47.577Z,6.17
2023-05-20T06:26:15.362Z,6.53
2023-05-20T06:28:43.192Z,6.97
2023-05-20T06:31:10.990Z,7.20
2023-05-20T06:33:39.914Z,9.27
2023-05-20T06:36:08.556Z,6.07
2023-05-20T06:38:36.382Z,7.33
2023-05-20T06:41:05.902Z,6.90
2023-05-20T06:43:34.165Z,9.50
2023-05-20T06:46:02.056Z,6.23
2023-05-20T06:48:30.028Z,6.60
2023-05-20T06:50:58.352Z,7.00
2023-05-20T06:53:26.222Z,7.53
2023-05-20T06:55:55.638Z,7.87
2023-05-20T06:58:24.770Z,6.37
2023-05-20T07:00:52.520Z,6.80
2023-05-20T07:03:20.277Z,7.43
2023-05-20T07:05:48.093Z,7.03
2023-05-20T07:08:15.782Z,7.17
2023-05-20T07:10:43.649Z,5.80
2023-05-20T07:13:11.702Z,6.90
2023-05-20T07:15:40.829Z,6.28
2023-05-20T07:18:08.621Z,5.68
2023-05-20T07:20:36.488Z,6.00
2023-05-20T07:23:04.506Z,5.93
2023-05-20T07:25:32.476Z,4.68
2023-05-20T07:28:00.664Z,4.78
2023-05-20T07:30:28.649Z,4.78
2023-05-20T07:32:57.817Z,6.72
2023-05-20T07:35:25.660Z,5.22
2023-05-20T07:37:53.459Z,4.70
2023-05-20T07:40:21.442Z,5.80
2023-05-20T07:42:49.410Z,5.72
2023-05-20T07:45:17.532Z,5.13
2023-05-20T07:47:45.402Z,5.78
2023-05-20T07:50:14.627Z,4.97
2023-05-20T07:52:55.019Z,5.05
2023-05-20T07:55:24.543Z,4.90
2023-05-20T07:57:52.305Z,4.55
2023-05-20T08:00:20.690Z,5.20
2023-05-20T08:02:48.697Z,5.00
2023-05-20T08:05:18.028Z,7.32
2023-05-20T08:07:45.801Z,6.35
2023-05-20T08:10:13.625Z,5.15
2023-05-20T08:12:41.625Z,5.15
2023-05-20T08:15:10.139Z,6.45
2023-05-20T08:17:38.805Z,4.70
2023-05-20T08:20:09.881Z,5.35
2023-05-20T08:22:38.983Z,5.75
2023-05-20T08:25:11.079Z,5.15
2023-05-20T08:27:38.953Z,5.53
2023-05-20T08:30:09.890Z,5.13
2023-05-20T08:32:37.851Z,4.32
2023-05-20T08:35:06.734Z,4.50
2023-05-20T08:37:34.445Z,5.38
2023-05-20T08:40:05.112Z,4.60
2023-05-20T08:42:32.821Z,4.63
2023-05-20T08:45:02.084Z,7.10
2023-05-20T08:47:30.075Z,4.35
2023-05-20T08:49:59.448Z,4.40
2023-05-20T08:52:28.077Z,5.43
2023-05-20T08:54:57.651Z,6.07
2023-05-20T08:57:28.109Z,4.95
2023-05-20T08:59:57.327Z,4.80
2023-05-20T09:02:25.090Z,7.03
2023-05-20T09:04:54.064Z,5.22
2023-05-20T09:07:28.697Z,5.88
2023-05-20T09:09:56.482Z,4.43
2023-05-20T09:12:24.279Z,4.93
2023-05-20T09:14:53.726Z,4.90
2023-05-20T09:17:22.633Z,4.53
2023-05-20T09:19:51.126Z,5.30
2023-05-20T09:22:23.619Z,5.03
2023-05-20T09:24:52.331Z,5.55
2023-05-20T09:27:20.366Z,5.78
2023-05-20T09:29:49.716Z,5.25
2023-05-20T09:32:24.046Z,4.70
2023-05-20T09:34:52.086Z,5.57
2023-05-20T09:37:20.580Z,4.68
2023-05-20T09:39:59.666Z,4.88
2023-05-20T09:42:29.715Z,5.38
2023-05-20T09:44:58.334Z,5.60
2023-05-20T09:47:28.969Z,4.75
2023-05-20T09:49:58.388Z,5.88
2023-05-20T09:52:28.220Z,5.43
2023-05-20T09:54:59.040Z,5.63
2023-05-20T09:57:27.198Z,5.95
2023-05-20T09:59:54.990Z,7.50
2023-05-20T10:02:22.852Z,6.35
2023-05-20T10:04:54.489Z,5.88
2023-05-20T10:07:42.380Z,7.80
2023-05-20T10:10:21.586Z,5.10
2023-05-20T10:12:57.070Z,5.35
2023-05-20T10:15:32.091Z,7.25
2023-05-20T10:18:17.322Z,6.03
2023-05-20T10:20:50.891Z,9.50
2023-05-20T10:23:26.356Z,5.43
2023-05-20T10:25:55.240Z,6.13
2023-05-20T10:28:33.691Z,6.45
2023-05-20T10:31:02.373Z,6.43
2023-05-20T10:33:30.981Z,6.03
2023-05-20T10:36:01.460Z,5.18
2023-05-20T10:38:29.585Z,6.05
2023-05-20T10:40:59.777Z,4.68
2023-05-20T10:43:29.362Z,6.55
2023-05-20T10:45:59.428Z,4.97
2023-05-20T10:48:29.942Z,6.03
2023-05-20T10:50:59.915Z,5.30
2023-05-20T10:53:33.546Z,6.38
2023-05-20T10:56:02.962Z,5.85
2023-05-20T10:58:38.404Z,6.05
2023-05-20T11:01:06.303Z,6.32
2023-05-20T11:03:36.158Z,6.45
2023-05-20T11:06:12.644Z,5.95
2023-05-20T11:08:41.703Z,5.20
2023-05-20T11:11:09.675Z,5.82
2023-05-20T11:13:37.384Z,6.22
2023-05-20T11:16:06.952Z,5.82
2023-05-20T11:18:35.279Z,6.78
2023-05-20T11:21:04.199Z,6.57
2023-05-20T11:23:32.102Z,5.85
2023-05-20T11:26:01.383Z,5.93
2023-05-20T11:28:29.180Z,6.70
2023-05-20T11:30:56.923Z,6.95
2023-05-20T11:33:27.665Z,6.05
2023-05-20T11:35:55.933Z,7.13
2023-05-20T11:38:23.710Z,7.95
2023-05-20T11:40:54.013Z,6.68
2023-05-20T11:43:25.353Z,6.13
2023-05-20T11:45:59.789Z,6.57
2023-05-20T11:48:28.270Z,6.60
2023-05-20T11:50:59.416Z,8.45
2023-05-20T11:53:29.204Z,7.97
2023-05-20T11:55:58.620Z,7.75
2023-05-20T11:58:28.770Z,6.70
2023-05-20T12:01:02.328Z,7.00
2023-05-20T12:03:37.441Z,6.75
2023-05-20T12:06:05.670Z,6.85
2023-05-20T12:08:33.441Z,6.65
2023-05-20T12:11:01.341Z,6.88
2023-05-20T12:13:30.432Z,6.47
2023-05-20T12:15:58.355Z,7.22
2023-05-20T12:18:26.373Z,7.53
2023-05-20T12:20:54.349Z,9.50
2023-05-20T12:23:22.461Z,7.68
2023-05-20T12:25:50.928Z,7.53
2023-05-20T12:28:18.879Z,7.75
2023-05-20T12:30:47.965Z,9.55
2023-05-20T12:33:15.789Z,7.18
2023-05-20T12:35:46.076Z,9.57
2023-05-20T12:38:14.170Z,7.53
2023-05-20T12:40:41.949Z,7.22
2023-05-20T12:43:10.384Z,7.60
2023-05-20T12:45:38.123Z,7.50
2023-05-20T12:48:08.164Z,7.65
2023-05-20T12:50:36.389Z,9.18
2023-05-20T12:53:04.417Z,7.13
2023-05-20T12:55:32.188Z,6.97
2023-05-20T12:57:59.988Z,7.13
2023-05-20T13:00:27.773Z,6.68
2023-05-20T13:02:55.676Z,7.25
2023-05-20T13:05:24.826Z,7.30
2023-05-20T13:07:52.578Z,8.52
2023-05-20T13:10:20.310Z,7.28
2023-05-20T13:12:48.120Z,7.50
2023-05-20T13:15:16.141Z,7.82
2023-05-20T13:17:44.016Z,8.20
2023-05-20T13:20:13.029Z,7.95
2023-05-20T13:22:42.229Z,7.93
2023-05-20T13:25:10.808Z,7.22
2023-05-20T13:27:38.628Z,7.35
2023-05-20T13:30:07.543Z,6.90
2023-05-20T13:32:35.734Z,7.47
2023-05-20T13:35:03.580Z,6.80
2023-05-20T13:37:31.461Z,7.10
2023-05-20T13:40:01.087Z,8.13
2023-05-20T13:42:28.891Z,8.93
2023-05-20T13:44:57.103Z,7.03
2023-05-20T13:47:24.953Z,6.60
2023-05-20T13:49:53.330Z,8.18
2023-05-20T13:52:21.450Z,6.97
2023-05-20T13:54:49.507Z,6.22
2023-05-20T13:57:19.005Z,6.25
2023-05-20T13:59:46.893Z,5.93
2023-05-20T14:02:14.820Z,6.10
2023-05-20T14:04:44.981Z,6.03
2023-05-20T14:07:13.147Z,5.55
2023-05-20T14:09:41.022Z,6.50
2023-05-20T14:12:09.363Z,6.00
2023-05-20T14:14:38.817Z,6.43
2023-05-20T14:17:07.882Z,6.15
2023-05-20T14:19:35.776Z,6.20
2023-05-20T14:22:03.937Z,8.00
2023-05-20T14:24:31.751Z,6.25
2023-05-20T14:26:59.565Z,6.63
2023-05-20T14:29:27.742Z,6.13
2023-05-20T14:31:57.171Z,5.90
2023-05-20T14:34:25.342Z,7.75
2023-05-20T14:36:53.333Z,8.35
2023-05-20T14:39:21.229Z,7.45
2023-05-20T14:41:49.077Z,6.55
2023-05-20T14:44:17.150Z,7.00
2023-05-20T14:46:46.694Z,5.95
2023-05-20T14:49:16.162Z,6.32
2023-05-20T14:51:44.038Z,6.05
2023-05-20T14:54:11.887Z,5.50
2023-05-20T14:56:40.686Z,5.47
2023-05-20T14:59:08.522Z,5.75
2023-05-20T15:01:38.184Z,7.28
2023-05-20T15:04:06.621Z,4.43
2023-05-20T15:06:36.569Z,7.97
2023-05-20T15:09:06.546Z,5.50
2023-05-20T15:11:34.412Z,4.57
2023-05-20T15:14:03.780Z,5.68
2023-05-20T15:16:33.911Z,5.47
2023-05-20T15:19:02.072Z,7.47
2023-05-20T15:21:31.206Z,6.35
2023-05-20T15:24:05.723Z,5.45
2023-05-20T15:26:34.378Z,5.18
2023-05-20T15:29:02.588Z,4.80
2023-05-20T15:31:30.607Z,5.13
2023-05-20T15:33:58.725Z,6.97
2023-05-20T15:36:28.366Z,5.25
2023-05-20T15:38:56.183Z,5.88
2023-05-20T15:41:29.515Z,6.57
2023-05-20T15:43:57.568Z,5.60
2023-05-20T15:46:26.333Z,6.50
2023-05-20T15:48:59.167Z,5.93
2023-05-20T15:51:29.304Z,6.25
2023-05-20T15:54:00.152Z,6.15
2023-05-20T15:56:30.398Z,6.88
2023-05-20T15:58:58.527Z,5.95
2023-05-20T16:01:26.993Z,9.32
2023-05-20T16:03:57.773Z,6.28
2023-05-20T16:06:26.065Z,6.53
2023-05-20T16:08:53.786Z,5.55
2023-05-20T16:11:22.923Z,6.78
2023-05-20T16:13:53.697Z,7.30
2023-05-20T16:16:21.667Z,7.05
2023-05-20T16:18:49.671Z,5.63
2023-05-20T16:21:18.948Z,6.22
2023-05-20T16:23:48.148Z,5.93
2023-05-20T16:26:17.646Z,5.95
2023-05-20T16:28:45.562Z,6.28
2023-05-20T16:31:14.953Z,9.15
2023-05-20T16:33:42.857Z,6.20
2023-05-20T16:36:12.069Z,6.25
2023-05-20T16:38:40.423Z,5.32
2023-05-20T16:41:08.222Z,5.85
2023-05-20T16:43:36.193Z,6.15
2023-05-20T16:46:04.096Z,6.95
2023-05-20T16:48:35.252Z,5.88
2023-05-20T16:51:03.138Z,6.82
2023-05-20T16:53:31.055Z,6.32
2023-05-20T16:56:01.682Z,7.43
2023-05-20T16:58:30.033Z,9.02
2023-05-20T17:00:58.310Z,5.32
2023-05-20T17:03:26.872Z,9.80
2023-05-20T17:05:56.584Z,8.13
2023-05-20T17:08:24.494Z,9.02
2023-05-20T17:10:54.142Z,6.35
2023-05-20T17:13:22.379Z,7.10
2023-05-20T17:15:50.505Z,5.60
2023-05-20T17:18:19.348Z,8.55
2023-05-20T17:20:47.423Z,6.30
2023-05-20T17:23:17.760Z,6.03
2023-05-20T17:25:46.410Z,5.50
2023-05-20T17:28:15.728Z,5.93
2023-05-20T17:30:43.809Z,6.55
2023-05-20T17:33:11.796Z,6.25
2023-05-20T17:35:42.554Z,6.40
2023-05-20T17:38:10.749Z,6.32
2023-05-20T17:40:41.108Z,6.45
2023-05-20T17:43:09.383Z,6.38
2023-05-20T17:45:37.296Z,7.30
2023-05-20T17:48:08.865Z,5.68
2023-05-20T17:50:38.864Z,7.68
2023-05-20T17:53:07.066Z,6.43
2023-05-20T17:55:38.674Z,6.28
2023-05-20T17:58:08.392Z,6.13
2023-05-20T18:00:42.260Z,6.15
2023-05-20T18:03:10.561Z,6.72
2023-05-20T18:05:38.551Z,8.55
2023-05-20T18:08:08.070Z,8.57
2023-05-20T18:10:37.468Z,7.32
2023-05-20T18:13:05.689Z,6.07
2023-05-20T18:15:35.921Z,6.80
2023-05-20T18:18:04.410Z,6.35
2023-05-20T18:20:32.883Z,8.60
2023-05-20T18:23:01.684Z,8.15
2023-05-20T18:25:31.924Z,7.18
2023-05-20T18:27:59.834Z,7.63
2023-05-20T18:30:28.017Z,8.77
2023-05-20T18:32:57.527Z,7.80
2023-05-20T18:35:25.623Z,9.25
2023-05-20T18:37:53.531Z,9.02
2023-05-20T18:40:21.570Z,7.85
2023-05-20T18:42:49.381Z,6.85
2023-05-20T18:45:17.963Z,7.32
2023-05-20T18:47:46.117Z,7.05
2023-05-20T18:50:15.713Z,6.43
2023-05-20T18:52:43.666Z,6.97
2023-05-20T18:55:11.536Z,6.10
2023-05-20T18:57:39.624Z,7.22
2023-05-20T19:00:12.308Z,6.75
2023-05-20T19:02:40.753Z,6.47
2023-05-20T19:05:10.777Z,6.93
2023-05-20T19:07:40.399Z,8.68
2023-05-20T19:10:09.785Z,8.73
2023-05-20T19:12:37.851Z,8.30
2023-05-20T19:15:08.073Z,10.30
2023-05-20T19:17:35.888Z,7.72
2023-05-20T19:20:08.278Z,8.73
2023-05-20T19:22:36.156Z,7.45
2023-05-20T19:25:06.259Z,9.75
2023-05-20T19:27:34.337Z,9.82
2023-05-20T19:30:02.299Z,7.65
2023-05-20T19:32:30.583Z,9.82
2023-05-20T19:34:58.448Z,7.35
2023-05-20T19:37:26.194Z,8.68
2023-05-20T19:39:54.523Z,8.00
2023-05-20T19:42:23.937Z,8.15
2023-05-20T19:44:51.864Z,7.15
2023-05-20T19:47:19.917Z,7.57
2023-05-20T19:49:47.813Z,7.20
2023-05-20T19:52:15.887Z,7.90
2023-05-20T19:54:46.294Z,10.35
2023-05-20T19:57:18.589Z,8.45
2023-05-20T19:59:52.231Z,8.93
2023-05-20T20:02:22.295Z,8.15
2023-05-20T20:04:52.178Z,8.73
2023-05-20T20:07:22.687Z,9.85
2023-05-20T20:09:57.109Z,8.02
2023-05-20T20:12:29.533Z,8.35
2023-05-20T20:15:13.826Z,7.88
2023-05-20T20:17:52.896Z,8.32
2023-05-20T20:20:22.251Z,7.88
2023-05-20T20:22:51.217Z,8.13
2023-05-20T20:25:21.100Z,8.20
2023-05-20T20:27:50.297Z,9.70
2023-05-20T20:30:21.551Z,15.40
2023-05-20T20:32:54.346Z,8.48
2023-05-20T20:35:25.782Z,8.77
2023-05-20T20:37:56.882Z,8.05
2023-05-20T20:40:29.301Z,8.82
2023-05-20T20:43:01.266Z,9.77
2023-05-20T20:45:33.778Z,8.70
2023-05-20T20:48:05.443Z,8.48
2023-05-20T20:50:34.664Z,7.63
2023-05-20T20:53:04.451Z,9.13
2023-05-20T20:55:32.683Z,7.88
2023-05-20T20:58:03.592Z,8.10
2023-05-20T21:00:33.778Z,8.63
2023-05-20T21:03:01.666Z,8.43
2023-05-20T21:05:29.621Z,9.00
2023-05-20T21:07:59.839Z,8.32
2023-05-20T21:10:30.013Z,9.38
2023-05-20T21:13:00.402Z,8.80
2023-05-20T21:15:28.857Z,8.65
2023-05-20T21:18:01.498Z,11.75
2023-05-20T21:20:29.786Z,9.43
2023-05-20T21:23:00.868Z,8.75
2023-05-20T21:25:30.935Z,8.45
2023-05-20T21:28:01.182Z,8.75
2023-05-20T21:30:32.605Z,9.02
2023-05-20T21:33:02.997Z,8.82
2023-05-20T21:35:36.118Z,9.65
2023-05-20T21:38:04.614Z,8.25
2023-05-20T21:40:33.015Z,11.00
2023-05-20T21:43:05.814Z,10.30
2023-05-20T21:45:39.354Z,8.77
2023-05-20T21:48:11.566Z,9.18
2023-05-20T21:50:43.626Z,9.05
2023-05-20T21:53:16.484Z,9.27
2023-05-20T21:55:46.723Z,9.00
2023-05-20T21:58:18.660Z,11.20
2023-05-20T22:00:50.695Z,9.77
2023-05-20T22:03:24.193Z,9.13
2023-05-20T22:05:52.676Z,9.40
2023-05-20T22:08:28.455Z,8.80
2023-05-20T22:10:59.796Z,9.15
2023-05-20T22:13:28.214Z,8.80
2023-05-20T22:15:58.023Z,8.95
2023-05-20T22:18:30.417Z,11.02
2023-05-20T22:21:01.012Z,9.88
2023-05-20T22:23:31.849Z,10.07
2023-05-20T22:26:02.329Z,9.05
2023-05-20T22:28:30.445Z,9.45
2023-05-20T22:31:00.327Z,8.95
2023-05-20T22:33:32.390Z,9.88
2023-05-20T22:36:00.537Z,9.05
2023-05-20T22:38:29.700Z,9.10
2023-05-20T22:41:00.442Z,9.80
2023-05-20T22:43:30.369Z,9.25
2023-05-20T22:45:59.028Z,8.95
2023-05-20T22:48:31.688Z,10.00
2023-05-20T22:51:04.031Z,10.45
2023-05-20T22:53:31.786Z,9.68
2023-05-20T22:56:01.119Z,8.55
2023-05-20T22:58:35.444Z,11.25
2023-05-20T23:01:03.955Z,9.02
2023-05-20T23:03:38.086Z,9.50
2023-05-20T23:06:08.840Z,8.85
2023-05-20T23:08:40.520Z,8.57
2023-05-20T23:11:11.701Z,9.52
2023-05-20T23:13:40.499Z,9.75
2023-05-20T23:16:08.522Z,9.45
2023-05-20T23:18:40.217Z,9.13
2023-05-20T23:21:14.698Z,10.00
2023-05-20T23:23:43.403Z,9.57
2023-05-20T23:26:12.331Z,11.18
2023-05-20T23:28:40.904Z,9.18
2023-05-20T23:31:09.266Z,8.82
2023-05-20T23:33:42.397Z,10.77
2023-05-20T23:36:12.503Z,9.30
2023-05-20T23:38:43.878Z,9.77
2023-05-20T23:41:11.746Z,8.95
2023-05-20T23:43:40.060Z,10.00
2023-05-20T23:46:08.993Z,8.93
2023-05-20T23:48:37.238Z,9.00
2023-05-20T23:51:11.848Z,9.48
2023-05-20T23:53:41.474Z,10.10
2023-05-20T23:56:10.073Z,9.15
2023-05-20T23:58:40.690Z,8.75
